METAR Formatted Surface Weather Observation
Issued by NWS

Home | Current Version | Previous Version | Text Only | Print | Product List | Glossary On
Versions: 1 2 3 4 5 6 7 8 9 10 11 12 13 14 15 16 17 18 19 20 21 22 23 24 25 26 27 28 29 30 31 32 33 34 35 36 37 38 39 40 41 42 43 44 45 46 47 48 49 50
116
SAUS44 KMOB 131203
MTR0J4
METAR K0J4 131158Z AUTO 01004KT 10SM CLR 05/M03 A3035 RMK AO2 SLP277
70001 T00501028 10106 20050 53027



USA.gov is the U.S. government's official web portal to all federal, state and local government web resources and services.